LiveATC.Net - Listen to live air traffic control over the Internet!


ICAO: KSAR  IATA: SAR   Airport: Sparta Community Airport-Hunter Field
City: Sparta   State/Province: Illinois
Country: United States   Continent: North America
KSAR METAR Weather: KSAR 240615Z AUTO 36005KT 7SM -RA OVC029 14/14 A3001 RMK AO2 P0002 T01400140
KSAR Flight Activity (FlightAware)
KSAR Airport Info   (iFlightPlanner)
KSAR VFR Sectional Chart   (iFlightPlanner) 
KSAR IFR Low Chart   (iFlightPlanner) 

KSAR CTAF
Feed Status: UP   Listeners: 0
Listen in your browser - HTML5 player (in browser, HTML5)
Click here to listen with your own player (launches your MP3 player)
KSAR CTAF Audio Archives
FacilityFrequency
Sparta CTAF123.075

NOTICE

Unauthorized use prohibited. See LiveATC.net Terms of Service


Find LiveATC Audio Streams


Airport/ARTCC Code

Frequency Search
(e.g., 124.400, 128.75)
Site-wide search
 


Browse LiveATC Feeds
Top 50 LiveATC Feeds
LiveATC Feed Map
Bad Weather Areas

LiveATC FAQ
Offer LiveATC feed
Contact LiveATC.net
Press Inquiries

LiveATC on iPhone
LiveATC on Android

Windows Phone
Windows 8/10

LiveATC Mobile
(Mobile browser)

ATC Audio Archives
Interesting Recordings

LiveATC Forums


Home Page
About LiveATC.net
Make a Donation
Terms of Use
Privacy Policy

Canadian Air Freqs

AIRMETs/SIGMETs

FAA Airport Status
Nat'l Airspace Status
Arrival Demand Charts


Server Software By:
Icecast.org
Liquidsoap